createdAt,value
2018-10-19T00:02:00.876Z,12.24
2018-10-19T00:04:29.563Z,12.23
2018-10-19T00:06:58.367Z,12.25
2018-10-19T00:09:27.020Z,12.30
2018-10-19T00:11:55.631Z,12.48
2018-10-19T00:14:24.301Z,12.51
2018-10-19T00:16:52.917Z,12.53
2018-10-19T00:19:21.590Z,12.59
2018-10-19T00:21:50.245Z,12.66
2018-10-19T00:24:19.250Z,12.67
2018-10-19T00:26:47.895Z,12.70
2018-10-19T00:29:16.580Z,12.81
2018-10-19T00:31:45.204Z,12.82
2018-10-19T00:34:13.891Z,12.74
2018-10-19T00:36:42.582Z,12.68
2018-10-19T00:39:12.504Z,12.93
2018-10-19T00:41:41.436Z,12.86
2018-10-19T00:44:10.276Z,13.00
2018-10-19T00:46:38.972Z,13.00
2018-10-19T00:49:07.816Z,13.05
2018-10-19T00:51:36.553Z,13.05
2018-10-19T00:54:05.426Z,13.18
2018-10-19T00:56:34.079Z,13.11
2018-10-19T00:59:02.818Z,13.11
2018-10-19T01:01:31.392Z,12.97
2018-10-19T01:04:00.060Z,12.93
2018-10-19T01:06:28.767Z,13.06
2018-10-19T01:08:57.499Z,13.16
2018-10-19T01:11:26.132Z,13.27
2018-10-19T01:13:54.811Z,13.22
2018-10-19T01:16:23.450Z,13.05
2018-10-19T01:18:52.084Z,13.15
2018-10-19T01:21:20.738Z,13.17
2018-10-19T01:23:49.375Z,13.08
2018-10-19T01:26:18.078Z,13.11
2018-10-19T01:28:46.743Z,13.16
2018-10-19T01:31:15.411Z,13.03
2018-10-19T01:33:44.105Z,13.01
2018-10-19T01:36:12.797Z,12.90
2018-10-19T01:38:41.495Z,12.77
2018-10-19T01:41:10.207Z,12.63
2018-10-19T01:43:38.886Z,12.53
2018-10-19T01:46:07.535Z,12.61
2018-10-19T01:48:36.251Z,12.60
2018-10-19T01:51:04.950Z,12.54
2018-10-19T01:53:33.564Z,12.42
2018-10-19T01:56:02.190Z,12.36
2018-10-19T01:58:30.794Z,12.31
2018-10-19T02:00:59.415Z,12.31
2018-10-19T02:03:28.043Z,12.28
2018-10-19T02:05:56.723Z,12.35
2018-10-19T02:08:25.341Z,12.39
2018-10-19T02:10:53.953Z,12.57
2018-10-19T02:13:22.578Z,12.64
2018-10-19T02:15:51.246Z,12.76
2018-10-19T02:18:20.468Z,12.83
2018-10-19T02:20:49.166Z,12.87
2018-10-19T02:23:17.884Z,12.95
2018-10-19T02:25:46.474Z,12.89
2018-10-19T02:28:15.126Z,12.94
2018-10-19T02:30:43.837Z,12.90
2018-10-19T02:33:12.488Z,12.81
2018-10-19T02:35:41.133Z,12.78
2018-10-19T02:38:09.847Z,12.78
2018-10-19T02:40:38.470Z,12.81
2018-10-19T02:43:07.238Z,12.72
2018-10-19T02:45:40.023Z,12.68
2018-10-19T02:48:08.779Z,12.70
2018-10-19T02:50:37.560Z,12.75
2018-10-19T02:53:06.296Z,12.69
2018-10-19T02:55:34.960Z,12.58
2018-10-19T02:58:04.413Z,12.42
2018-10-19T03:00:33.107Z,12.44
2018-10-19T03:03:01.782Z,12.46
2018-10-19T03:05:30.491Z,12.59
2018-10-19T03:07:59.188Z,12.62
2018-10-19T03:10:27.869Z,12.53
2018-10-19T03:12:56.506Z,12.53
2018-10-19T03:15:25.204Z,12.56
2018-10-19T03:17:53.826Z,12.60
2018-10-19T03:20:22.485Z,12.43
2018-10-19T03:22:51.126Z,12.24
2018-10-19T03:25:19.813Z,12.36
2018-10-19T03:27:48.510Z,12.32
2018-10-19T03:30:17.156Z,12.46
2018-10-19T03:32:45.815Z,12.47
2018-10-19T03:35:14.473Z,12.43
2018-10-19T03:37:43.070Z,12.44
2018-10-19T03:40:11.838Z,12.44
2018-10-19T03:42:40.502Z,12.50
2018-10-19T03:45:09.309Z,12.52
2018-10-19T03:47:37.931Z,12.55
2018-10-19T03:50:06.606Z,12.56
2018-10-19T03:52:35.241Z,12.55
2018-10-19T03:55:03.944Z,12.56
2018-10-19T03:57:32.630Z,12.58
2018-10-19T04:00:01.371Z,12.62
2018-10-19T04:02:30.036Z,12.50
2018-10-19T04:04:58.689Z,12.56
2018-10-19T04:07:27.405Z,12.40
2018-10-19T04:09:56.072Z,12.52
2018-10-19T04:12:24.697Z,12.46
2018-10-19T04:14:53.436Z,12.44
2018-10-19T04:17:22.105Z,12.49
2018-10-19T04:19:50.750Z,12.49
2018-10-19T04:22:19.579Z,12.50
2018-10-19T04:24:48.258Z,12.44
2018-10-19T04:27:16.974Z,12.46
2018-10-19T04:29:45.561Z,12.52
2018-10-19T04:32:14.209Z,12.49
2018-10-19T04:34:42.849Z,12.44
2018-10-19T04:37:11.512Z,12.52
2018-10-19T04:39:40.131Z,12.34
2018-10-19T04:42:08.801Z,12.44
2018-10-19T04:44:37.364Z,12.39
2018-10-19T04:47:06.337Z,12.46
2018-10-19T04:49:34.886Z,12.41
2018-10-19T04:52:03.525Z,12.40
2018-10-19T04:54:32.138Z,12.49
2018-10-19T04:57:00.826Z,12.43
2018-10-19T04:59:29.406Z,12.56
2018-10-19T05:01:58.073Z,12.47
2018-10-19T05:04:26.735Z,12.34
2018-10-19T05:06:55.483Z,12.40
2018-10-19T05:09:24.160Z,12.36
2018-10-19T05:11:52.838Z,12.30
2018-10-19T05:14:21.567Z,12.28
2018-10-19T05:16:50.225Z,12.26
2018-10-19T05:19:18.879Z,12.48
2018-10-19T05:21:47.531Z,12.29
2018-10-19T05:24:16.218Z,12.34
2018-10-19T05:26:44.862Z,12.37
2018-10-19T05:29:13.550Z,12.33
2018-10-19T05:31:42.204Z,12.26
2018-10-19T05:34:10.833Z,12.13
2018-10-19T05:36:39.614Z,12.05
2018-10-19T05:39:09.150Z,12.24
2018-10-19T05:41:37.835Z,12.36
2018-10-19T05:44:06.587Z,12.44
2018-10-19T05:46:35.238Z,12.52
2018-10-19T05:49:03.963Z,12.55
2018-10-19T05:51:32.605Z,12.54
2018-10-19T05:54:01.323Z,12.59
2018-10-19T05:56:29.959Z,12.64
2018-10-19T05:58:58.653Z,12.69
2018-10-19T06:01:27.342Z,12.58
2018-10-19T06:03:55.995Z,12.51
2018-10-19T06:06:24.669Z,12.54
2018-10-19T06:08:53.402Z,12.51
2018-10-19T06:11:22.110Z,12.56
2018-10-19T06:13:50.788Z,12.58
2018-10-19T06:16:19.446Z,12.70
2018-10-19T06:18:48.111Z,12.90
2018-10-19T06:21:16.809Z,13.01
2018-10-19T06:23:45.398Z,13.14
2018-10-19T06:26:14.314Z,13.26
2018-10-19T06:28:42.694Z,13.26
2018-10-19T06:31:11.307Z,13.36
2018-10-19T06:33:39.937Z,13.34
2018-10-19T06:36:08.650Z,13.52
2018-10-19T06:38:37.437Z,13.49
2018-10-19T06:41:06.150Z,13.49
2018-10-19T06:43:34.740Z,13.50
2018-10-19T06:46:03.522Z,13.56
2018-10-19T06:48:32.187Z,13.61
2018-10-19T06:51:00.927Z,13.76
2018-10-19T06:53:29.527Z,13.79
2018-10-19T06:55:58.777Z,13.70
2018-10-19T06:58:27.446Z,13.72
2018-10-19T07:00:56.068Z,13.84
2018-10-19T07:03:24.728Z,13.88
2018-10-19T07:05:53.534Z,13.93
2018-10-19T07:08:22.068Z,13.96
2018-10-19T07:10:50.735Z,14.04
2018-10-19T07:13:19.376Z,14.06
2018-10-19T07:15:48.060Z,14.00
2018-10-19T07:18:16.712Z,14.03
2018-10-19T07:20:45.401Z,14.18
2018-10-19T07:23:14.087Z,14.34
2018-10-19T07:25:42.685Z,14.25
2018-10-19T07:28:11.393Z,14.43
2018-10-19T07:30:40.239Z,14.55
2018-10-19T07:33:08.970Z,14.60
2018-10-19T07:35:37.647Z,14.77
2018-10-19T07:38:06.534Z,14.70
2018-10-19T07:40:35.110Z,14.82
2018-10-19T07:43:03.771Z,14.92
2018-10-19T07:45:32.498Z,15.02
2018-10-19T07:48:01.371Z,15.05
2018-10-19T07:50:29.779Z,15.22
2018-10-19T07:52:58.446Z,15.14
2018-10-19T07:55:33.530Z,15.23
2018-10-19T07:58:02.184Z,15.26
2018-10-19T08:00:30.838Z,15.33
2018-10-19T08:02:59.448Z,15.31
2018-10-19T08:05:28.098Z,15.38
2018-10-19T08:07:56.721Z,15.42
2018-10-19T08:10:25.337Z,15.45
2018-10-19T08:12:54.582Z,15.52
2018-10-19T08:15:23.183Z,15.51
2018-10-19T08:17:51.839Z,15.50
2018-10-19T08:20:20.455Z,15.56
2018-10-19T08:22:49.345Z,15.73
2018-10-19T08:25:18.005Z,15.83
2018-10-19T08:27:46.619Z,15.79
2018-10-19T08:30:15.388Z,15.77
2018-10-19T08:32:44.333Z,15.92
2018-10-19T08:35:13.067Z,15.97
2018-10-19T08:37:41.698Z,16.00
2018-10-19T08:40:10.354Z,16.03
2018-10-19T08:42:38.998Z,16.30
2018-10-19T08:45:08.078Z,16.08
2018-10-19T08:47:36.766Z,16.18
2018-10-19T08:50:07.649Z,16.33
2018-10-19T08:52:36.254Z,16.32
2018-10-19T08:55:05.862Z,16.53
2018-10-19T08:57:34.465Z,16.51
2018-10-19T09:00:03.263Z,16.40
2018-10-19T09:02:31.899Z,16.59
2018-10-19T09:05:00.686Z,16.67
2018-10-19T09:07:29.323Z,16.71
2018-10-19T09:09:57.957Z,16.81
2018-10-19T09:12:26.644Z,16.71
2018-10-19T09:14:57.597Z,16.92
2018-10-19T09:17:26.298Z,16.88
2018-10-19T09:19:55.285Z,16.71
2018-10-19T09:22:23.953Z,16.65
2018-10-19T09:24:52.984Z,16.87
2018-10-19T09:27:21.716Z,17.03
2018-10-19T09:29:50.341Z,17.13
2018-10-19T09:32:19.041Z,16.89
2018-10-19T09:34:47.662Z,16.85
2018-10-19T09:37:16.349Z,16.95
2018-10-19T09:39:45.030Z,16.81
2018-10-19T09:42:13.816Z,16.78
2018-10-19T09:44:42.459Z,16.89
2018-10-19T09:47:11.135Z,16.96
2018-10-19T09:49:39.770Z,17.13
2018-10-19T09:52:08.465Z,17.15
2018-10-19T09:54:37.144Z,17.18
2018-10-19T09:57:06.229Z,17.18
2018-10-19T09:59:34.814Z,17.20
2018-10-19T10:02:03.464Z,17.24
2018-10-19T10:04:32.085Z,17.30
2018-10-19T10:07:00.710Z,17.44
2018-10-19T10:09:29.360Z,17.27
2018-10-19T10:11:57.983Z,17.14
2018-10-19T10:14:26.653Z,17.07
2018-10-19T10:16:55.273Z,17.03
2018-10-19T10:19:23.925Z,17.11
2018-10-19T10:21:52.581Z,17.04
2018-10-19T10:24:21.259Z,17.16
2018-10-19T10:26:49.961Z,16.87
2018-10-19T10:29:18.590Z,16.87
2018-10-19T10:31:47.228Z,16.86
2018-10-19T10:34:15.940Z,16.96
2018-10-19T10:36:44.498Z,16.99
2018-10-19T10:39:13.955Z,16.97
2018-10-19T10:41:42.489Z,17.05
2018-10-19T10:44:11.093Z,16.96
2018-10-19T10:46:39.751Z,17.14
2018-10-19T10:49:09.025Z,17.01
2018-10-19T10:51:37.630Z,17.00
2018-10-19T10:54:06.325Z,17.14
2018-10-19T10:56:35.573Z,17.39
2018-10-19T10:59:04.233Z,17.47
2018-10-19T11:01:32.948Z,17.60
2018-10-19T11:04:01.649Z,17.61
2018-10-19T11:06:30.716Z,17.55
2018-10-19T11:08:59.343Z,17.60
2018-10-19T11:11:28.005Z,17.65
2018-10-19T11:13:56.616Z,17.76
2018-10-19T11:16:25.266Z,17.81
2018-10-19T11:18:53.907Z,17.71
2018-10-19T11:21:22.502Z,17.80
2018-10-19T11:23:51.197Z,17.88
2018-10-19T11:26:19.777Z,17.80
2018-10-19T11:28:48.439Z,17.81
2018-10-19T11:31:17.118Z,17.84
2018-10-19T11:33:45.718Z,17.82
2018-10-19T11:36:14.386Z,17.74
2018-10-19T11:38:43.021Z,17.75
2018-10-19T11:41:11.685Z,17.93
2018-10-19T11:43:40.334Z,18.06
2018-10-19T11:46:09.421Z,18.18
2018-10-19T11:48:38.050Z,18.24
2018-10-19T11:51:06.667Z,18.30
2018-10-19T11:53:35.344Z,18.25
2018-10-19T11:56:03.943Z,18.34
2018-10-19T11:58:32.648Z,18.41
2018-10-19T12:01:01.279Z,18.52
2018-10-19T12:03:29.928Z,18.71
2018-10-19T12:05:58.566Z,18.63
2018-10-19T12:08:27.210Z,18.68
2018-10-19T12:10:55.843Z,18.73
2018-10-19T12:13:24.461Z,19.00
2018-10-19T12:15:53.130Z,19.02
2018-10-19T12:18:21.790Z,19.06
2018-10-19T12:20:50.451Z,18.98
2018-10-19T12:23:19.086Z,18.86
2018-10-19T12:25:47.720Z,19.06
2018-10-19T12:28:16.354Z,19.24
2018-10-19T12:30:45.028Z,19.24
2018-10-19T12:33:13.748Z,19.29
2018-10-19T12:35:42.343Z,19.17
2018-10-19T12:38:10.944Z,18.97
2018-10-19T12:40:39.586Z,19.15
2018-10-19T12:43:08.301Z,19.22
2018-10-19T12:46:48.509Z,19.38
2018-10-19T12:49:18.732Z,19.53
2018-10-19T12:51:47.430Z,19.64
2018-10-19T12:54:16.400Z,19.68
2018-10-19T12:56:45.039Z,19.85
2018-10-19T12:59:13.662Z,19.86
2018-10-19T13:01:42.425Z,19.74
2018-10-19T13:04:11.070Z,19.67
2018-10-19T13:06:39.736Z,19.81
2018-10-19T13:09:12.761Z,19.84
2018-10-19T13:11:41.295Z,19.76
2018-10-19T13:14:10.153Z,19.90
2018-10-19T13:16:38.849Z,19.93
2018-10-19T13:19:07.612Z,19.83
2018-10-19T13:21:36.333Z,19.84
2018-10-19T13:24:05.406Z,19.87
2018-10-19T13:26:34.117Z,19.83
2018-10-19T13:29:02.772Z,19.88
2018-10-19T13:31:31.370Z,19.89
2018-10-19T13:34:00.003Z,20.04
2018-10-19T13:36:28.645Z,20.11
2018-10-19T13:38:57.316Z,19.98
2018-10-19T13:41:25.957Z,20.11
2018-10-19T13:43:55.223Z,20.08
2018-10-19T13:46:24.137Z,20.10
2018-10-19T13:48:52.709Z,20.21
2018-10-19T13:51:21.405Z,20.27
2018-10-19T13:53:49.964Z,20.61
2018-10-19T13:56:18.652Z,20.96
2018-10-19T13:58:47.338Z,21.22
2018-10-19T14:01:15.970Z,21.47
2018-10-19T14:03:44.613Z,21.42
2018-10-19T14:06:13.272Z,21.29
2018-10-19T14:08:42.044Z,21.57
2018-10-19T14:11:10.766Z,21.55
2018-10-19T14:13:39.943Z,21.47
2018-10-19T14:16:08.598Z,21.51
2018-10-19T14:18:37.236Z,21.39
2018-10-19T14:21:06.018Z,21.55
2018-10-19T14:23:34.781Z,21.59
2018-10-19T14:26:03.398Z,21.46
2018-10-19T14:28:32.035Z,21.57
2018-10-19T14:31:00.660Z,21.31
2018-10-19T14:33:29.477Z,21.35
2018-10-19T14:35:57.921Z,21.40
2018-10-19T14:38:26.536Z,21.45
2018-10-19T14:40:55.237Z,20.99
2018-10-19T14:43:23.911Z,20.71
2018-10-19T14:45:52.643Z,20.75
2018-10-19T14:48:21.329Z,20.54
2018-10-19T14:50:49.954Z,20.35
2018-10-19T14:53:18.607Z,20.18
2018-10-19T14:55:47.337Z,20.00
2018-10-19T14:58:16.004Z,19.79
2018-10-19T15:00:44.650Z,19.58
2018-10-19T15:03:13.454Z,19.40
2018-10-19T15:05:42.074Z,19.50
2018-10-19T15:08:10.723Z,19.52
2018-10-19T15:10:39.670Z,19.53
2018-10-19T15:13:08.251Z,19.54
2018-10-19T15:15:36.931Z,19.65
2018-10-19T15:18:06.310Z,19.64
2018-10-19T15:20:34.939Z,19.43
2018-10-19T15:23:03.619Z,19.23
2018-10-19T15:25:32.272Z,19.06
2018-10-19T15:28:01.170Z,18.90
2018-10-19T15:30:29.895Z,18.81
2018-10-19T15:32:58.667Z,18.76
2018-10-19T15:35:27.327Z,18.47
2018-10-19T15:37:55.982Z,18.36
2018-10-19T15:40:24.594Z,18.24
2018-10-19T15:42:53.282Z,17.96
2018-10-19T15:45:22.012Z,17.89
2018-10-19T15:47:50.699Z,17.84
2018-10-19T15:50:19.340Z,17.76
2018-10-19T15:52:47.997Z,17.61
2018-10-19T15:55:16.681Z,17.51
2018-10-19T15:57:45.323Z,17.34
2018-10-19T16:00:14.107Z,17.32
2018-10-19T16:02:42.680Z,17.30
2018-10-19T16:05:11.340Z,17.24
2018-10-19T16:07:40.000Z,17.10
2018-10-19T16:10:08.827Z,17.04
2018-10-19T16:12:37.431Z,16.98
2018-10-19T16:15:08.948Z,17.02
2018-10-19T16:17:37.816Z,17.05
2018-10-19T16:20:08.198Z,17.12
2018-10-19T16:22:37.049Z,17.08
2018-10-19T16:25:07.653Z,17.02
2018-10-19T16:27:37.399Z,17.11
2018-10-19T16:30:06.967Z,17.11
2018-10-19T16:32:35.557Z,17.11
2018-10-19T16:35:04.231Z,17.02
2018-10-19T16:37:32.893Z,16.92
2018-10-19T16:40:01.540Z,16.88
2018-10-19T16:42:30.230Z,16.81
2018-10-19T16:44:58.896Z,16.76
2018-10-19T16:47:27.598Z,16.71
2018-10-19T16:49:56.286Z,16.66
2018-10-19T16:52:25.199Z,16.58
2018-10-19T16:54:53.805Z,16.52
2018-10-19T16:57:22.489Z,16.46
2018-10-19T16:59:51.097Z,16.47
2018-10-19T17:02:19.771Z,16.41
2018-10-19T17:04:48.528Z,16.40
2018-10-19T17:07:17.180Z,16.26
2018-10-19T17:09:45.821Z,16.07
2018-10-19T17:12:14.515Z,16.09
2018-10-19T17:14:43.086Z,16.12
2018-10-19T17:17:11.762Z,16.02
2018-10-19T17:19:40.670Z,16.09
2018-10-19T17:22:09.308Z,15.90
2018-10-19T17:24:37.958Z,15.83
2018-10-19T17:27:06.794Z,15.73
2018-10-19T17:29:35.440Z,15.77
2018-10-19T17:32:04.093Z,15.66
2018-10-19T17:34:32.777Z,15.66
2018-10-19T17:37:01.468Z,15.74
2018-10-19T17:39:30.076Z,15.69
2018-10-19T17:41:58.894Z,15.63
2018-10-19T17:44:27.593Z,15.57
2018-10-19T17:46:57.562Z,15.37
2018-10-19T17:49:26.211Z,15.37
2018-10-19T17:51:54.831Z,15.26
2018-10-19T17:54:24.260Z,15.28
2018-10-19T17:56:52.855Z,15.32
2018-10-19T17:59:21.549Z,15.38
2018-10-19T18:01:50.211Z,15.35
2018-10-19T18:04:18.958Z,15.26
2018-10-19T18:06:47.686Z,15.20
2018-10-19T18:09:16.373Z,15.18
2018-10-19T18:11:45.142Z,15.01
2018-10-19T18:14:17.067Z,15.01
2018-10-19T18:16:45.704Z,14.89
2018-10-19T18:19:14.343Z,14.78
2018-10-19T18:21:43.312Z,14.78
2018-10-19T18:24:11.909Z,14.67
2018-10-19T18:26:40.541Z,14.68
2018-10-19T18:29:09.295Z,14.74
2018-10-19T18:31:37.925Z,14.78
2018-10-19T18:34:06.708Z,14.71
2018-10-19T18:36:35.355Z,14.54
2018-10-19T18:39:10.122Z,14.49
2018-10-19T18:41:38.870Z,14.49
2018-10-19T18:44:08.382Z,14.51
2018-10-19T18:46:37.361Z,14.67
2018-10-19T18:49:06.767Z,14.57
2018-10-19T18:51:35.390Z,14.54
2018-10-19T18:54:04.132Z,14.58
2018-10-19T18:56:32.735Z,14.47
2018-10-19T18:59:01.454Z,14.47
2018-10-19T19:01:30.087Z,14.27
2018-10-19T19:03:58.818Z,14.27
2018-10-19T19:06:27.945Z,14.20
2018-10-19T19:08:57.185Z,14.22
2018-10-19T19:11:26.043Z,14.20
2018-10-19T19:13:54.763Z,14.19
2018-10-19T19:16:30.454Z,14.28
2018-10-19T19:18:59.126Z,14.22
2018-10-19T19:21:27.872Z,14.16
2018-10-19T19:24:01.612Z,14.11
2018-10-19T19:26:30.317Z,14.07
2018-10-19T19:28:59.348Z,14.10
2018-10-19T19:31:28.110Z,14.10
2018-10-19T19:34:01.922Z,14.08
2018-10-19T19:36:30.607Z,14.02
2018-10-19T19:38:59.259Z,13.92
2018-10-19T19:41:33.115Z,13.98
2018-10-19T19:44:01.782Z,13.91
2018-10-19T19:46:30.407Z,13.81
2018-10-19T19:49:04.081Z,13.84
2018-10-19T19:51:32.734Z,13.75
2018-10-19T19:54:01.371Z,13.71
2018-10-19T19:56:29.999Z,13.68
2018-10-19T19:58:58.651Z,13.54
2018-10-19T20:01:27.318Z,13.66
2018-10-19T20:03:55.962Z,13.52
2018-10-19T20:06:24.718Z,13.47
2018-10-19T20:08:53.331Z,13.47
2018-10-19T20:11:22.004Z,13.37
2018-10-19T20:13:50.746Z,13.41
2018-10-19T20:16:20.202Z,13.28
2018-10-19T20:18:49.171Z,13.15
2018-10-19T20:21:17.872Z,13.23
2018-10-19T20:23:46.897Z,13.20
2018-10-19T20:26:15.757Z,13.06
2018-10-19T20:28:44.427Z,13.08
2018-10-19T20:31:13.150Z,13.07
2018-10-19T20:33:41.808Z,13.07
2018-10-19T20:36:10.604Z,13.18
2018-10-19T20:38:44.210Z,13.01
2018-10-19T20:41:12.913Z,12.96
2018-10-19T20:43:41.537Z,13.00
2018-10-19T20:46:10.149Z,13.05
2018-10-19T20:48:38.781Z,13.18
2018-10-19T20:51:07.418Z,13.08
2018-10-19T20:53:36.102Z,13.07
2018-10-19T20:56:05.154Z,13.08
2018-10-19T20:58:33.785Z,13.07
2018-10-19T21:01:02.463Z,13.05
2018-10-19T21:03:31.087Z,13.02
2018-10-19T21:05:59.751Z,12.98
2018-10-19T21:08:28.406Z,13.07
2018-10-19T21:10:57.081Z,13.02
2018-10-19T21:13:25.706Z,13.04
2018-10-19T21:16:00.014Z,12.95
2018-10-19T21:18:28.745Z,12.89
2018-10-19T21:20:57.594Z,12.92
2018-10-19T21:23:26.215Z,12.96
2018-10-19T21:25:54.915Z,12.84
2018-10-19T21:28:23.540Z,12.83
2018-10-19T21:30:52.203Z,12.74
2018-10-19T21:33:20.833Z,12.63
2018-10-19T21:35:49.495Z,12.66
2018-10-19T21:38:18.271Z,12.73
2018-10-19T21:40:46.869Z,12.54
2018-10-19T21:43:15.535Z,12.56
2018-10-19T21:45:46.020Z,12.45
2018-10-19T21:48:14.895Z,12.38
2018-10-19T21:50:44.814Z,12.34
2018-10-19T21:53:13.576Z,12.40
2018-10-19T21:55:42.193Z,12.62
2018-10-19T21:58:12.425Z,12.53
2018-10-19T22:00:41.725Z,12.53
2018-10-19T22:03:10.362Z,12.54
2018-10-19T22:05:38.991Z,12.45
2018-10-19T22:08:07.930Z,12.31
2018-10-19T22:10:36.562Z,12.34
2018-10-19T22:13:05.261Z,12.31
2018-10-19T22:15:33.856Z,12.42
2018-10-19T22:18:02.507Z,12.36
2018-10-19T22:20:31.163Z,12.26
2018-10-19T22:22:59.873Z,12.27
2018-10-19T22:25:28.471Z,12.25
2018-10-19T22:27:57.078Z,12.12
2018-10-19T22:30:25.744Z,12.09
2018-10-19T22:32:54.459Z,12.14
2018-10-19T22:35:23.136Z,12.21
2018-10-19T22:37:51.771Z,12.16
2018-10-19T22:40:20.423Z,12.14
2018-10-19T22:42:49.021Z,11.94
2018-10-19T22:45:17.672Z,11.97
2018-10-19T22:47:46.331Z,11.77
2018-10-19T22:50:14.977Z,11.76
2018-10-19T22:52:43.630Z,11.84
2018-10-19T22:55:12.379Z,11.86
2018-10-19T22:57:40.950Z,11.85
2018-10-19T23:00:09.659Z,11.84
2018-10-19T23:02:38.267Z,11.78
2018-10-19T23:05:07.106Z,11.63
2018-10-19T23:07:35.722Z,11.68
2018-10-19T23:10:04.552Z,11.82
2018-10-19T23:12:33.262Z,11.72
2018-10-19T23:15:01.890Z,11.61
2018-10-19T23:17:30.522Z,11.64
2018-10-19T23:19:59.339Z,11.79
2018-10-19T23:22:28.034Z,11.75
2018-10-19T23:24:56.703Z,11.65
2018-10-19T23:27:25.393Z,11.62
2018-10-19T23:29:53.995Z,11.48
2018-10-19T23:32:22.617Z,11.50
2018-10-19T23:34:51.374Z,11.57
2018-10-19T23:37:19.980Z,11.64
2018-10-19T23:39:48.642Z,11.64
2018-10-19T23:42:17.227Z,11.72
2018-10-19T23:44:45.835Z,11.79
2018-10-19T23:47:14.565Z,11.80
2018-10-19T23:49:43.111Z,11.72
2018-10-19T23:52:11.743Z,11.57
2018-10-19T23:54:40.341Z,11.55
2018-10-19T23:57:08.962Z,11.41
2018-10-19T23:59:37.737Z,11.35
